Map

Track Data

SID SEASON NUMBER BASIN SUBBASIN NAME ISO_TIME NATURE LAT LON WMO_WIND WMO_PRES WMO_AGENCY TRACK_TYPE DIST2LAND LANDFALL IFLAG USA_AGENCY USA_ATCF_ID USA_LAT USA_LON USA_RECORD USA_STATUS USA_WIND USA_PRES USA_SSHS USA_R34_NE USA_R34_SE USA_R34_SW USA_R34_NW USA_R50_NE USA_R50_SE USA_R50_SW USA_R50_NW USA_R64_NE USA_R64_SE USA_R64_SW USA_R64_NW USA_POCI USA_ROCI USA_RMW USA_EYE TOKYO_LAT TOKYO_LON TOKYO_GRADE TOKYO_WIND TOKYO_PRES TOKYO_R50_DIR TOKYO_R50_LONG TOKYO_R50_SHORT TOKYO_R30_DIR TOKYO_R30_LONG TOKYO_R30_SHORT TOKYO_LAND CMA_LAT CMA_LON CMA_CAT CMA_WIND CMA_PRES HKO_LAT HKO_LON HKO_CAT HKO_WIND HKO_PRES NEWDELHI_LAT NEWDELHI_LON NEWDELHI_GRADE NEWDELHI_WIND NEWDELHI_PRES NEWDELHI_CI NEWDELHI_DP NEWDELHI_POCI REUNION_LAT REUNION_LON REUNION_TYPE REUNION_WIND REUNION_PRES REUNION_TNUM REUNION_CI REUNION_RMW REUNION_R34_NE REUNION_R34_SE REUNION_R34_SW REUNION_R34_NW REUNION_R50_NE REUNION_R50_SE REUNION_R50_SW REUNION_R50_NW REUNION_R64_NE REUNION_R64_SE REUNION_R64_SW REUNION_R64_NW BOM_LAT BOM_LON BOM_TYPE BOM_WIND BOM_PRES BOM_TNUM BOM_CI BOM_RMW BOM_R34_NE BOM_R34_SE BOM_R34_SW BOM_R34_NW BOM_R50_NE BOM_R50_SE BOM_R50_SW BOM_R50_NW BOM_R64_NE BOM_R64_SE BOM_R64_SW BOM_R64_NW BOM_ROCI BOM_POCI BOM_EYE BOM_POS_METHOD BOM_PRES_METHOD NADI_LAT NADI_LON NADI_CAT NADI_WIND NADI_PRES WELLINGTON_LAT WELLINGTON_LON WELLINGTON_WIND WELLINGTON_PRES DS824_LAT DS824_LON DS824_STAGE DS824_WIND DS824_PRES TD9636_LAT TD9636_LON TD9636_STAGE TD9636_WIND TD9636_PRES TD9635_LAT TD9635_LON TD9635_WIND TD9635_PRES TD9635_ROCI NEUMANN_LAT NEUMANN_LON NEUMANN_CLASS NEUMANN_WIND NEUMANN_PRES MLC_LAT MLC_LON MLC_CLASS MLC_WIND MLC_PRES USA_GUST BOM_GUST BOM_GUST_PER REUNION_GUST REUNION_GUST_PER USA_SEAHGT USA_SEARAD_NE USA_SEARAD_SE USA_SEARAD_SW USA_SEARAD_NW STORM_SPEED STORM_DIR
1875011S14076 1875 2 SI MM NOT_NAMED 1875-01-11 06:00:00 NR -13.7000 75.9500 reunion main 2069 2055 _____O____O___ -1 -13.3000 76.3000 99 9.90000 -14.1000 75.6000 7 3 223
1875011S14076 1875 2 SI MM NOT_NAMED 1875-01-11 09:00:00 NR -13.8080 75.8450 main 2045 2031 _____P____P___ -1 -13.4192 76.1961 99 -14.1969 75.4938 7 3 223
1875011S14076 1875 2 SI MM NOT_NAMED 1875-01-11 12:00:00 NR -13.9164 75.7413 main 2031 2017 _____P____P___ -1 -13.5377 76.0926 99 -14.2951 75.3901 7 3 222
1875011S14076 1875 2 SI MM NOT_NAMED 1875-01-11 15:00:00 NR -14.0253 75.6405 main 2017 2002 _____P____P___ -1 -13.6549 75.9897 99 -14.3957 75.2913 7 3 221
1875011S14076 1875 2 SI MM NOT_NAMED 1875-01-11 18:00:00 NR -14.1351 75.5440 main 2002 1998 _____P____O___ -1 -13.7702 75.8879 99 -14.5000 75.2000 7 3 219
1875011S14076 1875 2 SI MM NOT_NAMED 1875-01-11 21:00:00 NR -14.2455 75.4527 main 1998 1984 _____P____P___ -1 -13.8830 75.7877 99 -14.6081 75.1178 7 3 219
1875011S14076 1875 2 SI MM NOT_NAMED 1875-01-12 00:00:00 NR -14.3538 75.3659 main 1979 1965 _____P____P___ -1 -13.9926 75.6893 99 -14.7150 75.0425 7 3 217
1875011S14076 1875 2 SI MM NOT_NAMED 1875-01-12 03:00:00 NR -14.4564 75.2821 main 1965 1955 _____P____P___ -1 -14.0985 75.5933 99 -14.8144 74.9709 7 3 219
1875011S14076 1875 2 SI MM NOT_NAMED 1875-01-12 06:00:00 NR -14.5500 75.2000 reunion main 1955 1941 _____O____O___ -1 -14.2000 75.5000 99 9.90000 -14.9000 74.9000 7 2 223
1875011S14076 1875 2 SI MM NOT_NAMED 1875-01-12 09:00:00 NR -14.6265 75.1193 main 1941 1927 _____P____P___ -1 -14.2967 75.4097 99 -14.9562 74.8290 7 2 226
1875011S14076 1875 2 SI MM NOT_NAMED 1875-01-12 12:00:00 NR -14.6946 75.0396 main 1927 1923 _____P____P___ -1 -14.3893 75.3217 99 -15.0000 74.7574 7 2 229
1875011S14076 1875 2 SI MM NOT_NAMED 1875-01-12 15:00:00 NR -14.7611 74.9587 main 1923 1913 _____P____P___ -1 -14.4784 75.2353 99 -15.0437 74.6821 7 2 229
1875011S14076 1875 2 SI MM NOT_NAMED 1875-01-12 18:00:00 NR -14.8324 74.8749 main 1913 1899 _____P____O___ -1 -14.5649 75.1497 99 -15.1000 74.6000 7 2 227
1875011S14076 1875 2 SI MM NOT_NAMED 1875-01-12 21:00:00 NR -14.9176 74.7837 main 1899 1885 _____P____P___ -1 -14.6495 75.0642 99 -15.1856 74.5032 7 3 226
1875011S14076 1875 2 SI MM NOT_NAMED 1875-01-13 00:00:00 NR -15.0090 74.6890 main 1885 1871 _____P____P___ -1 -14.7330 74.9780 99 -15.2850 74.4000 7 3 225
1875011S14076 1875 2 SI MM NOT_NAMED 1875-01-13 03:00:00 NR -15.1041 74.5935 main 1871 1857 _____P____P___ -1 -14.8163 74.8901 99 -15.3919 74.2969 7 3 223
1875011S14076 1875 2 SI MM NOT_NAMED 1875-01-13 06:00:00 NR -15.2000 74.5000 reunion main 1857 1843 _____O____O___ -1 -14.9000 74.8000 99 9.90000 -15.5000 74.2000 7 3 223
1875011S14076 1875 2 SI MM NOT_NAMED 1875-01-13 09:00:00 NR -15.2928 74.4123 main 1843 1829 _____P____P___ -1 -14.9856 74.7027 99 -15.6000 74.1218 7 3 222
1875011S14076 1875 2 SI MM NOT_NAMED 1875-01-13 12:00:00 NR -15.3854 74.3265 main 1829 1815 _____P____P___ -1 -15.0709 74.6031 99 -15.7000 74.0499 7 3 222
1875011S14076 1875 2 SI MM NOT_NAMED 1875-01-13 15:00:00 NR -15.4782 74.2400 main 1815 1811 _____P____P___ -1 -15.1564 74.5019 99 -15.8000 73.9781 7 3 222
1875011S14076 1875 2 SI MM NOT_NAMED 1875-01-13 18:00:00 NR -15.5713 74.1499 main 1801 1801 _____P____O___ -1 -15.2425 74.3999 99 -15.9000 73.9000 7 2 224
1875011S14076 1875 2 SI MM NOT_NAMED 1875-01-13 21:00:00 NR -15.6545 74.0626 main 1798 1787 _____P____P___ -1 -15.3295 74.2980 99 -15.9796 73.8273 7 2 225
1875011S14076 1875 2 SI MM NOT_NAMED 1875-01-14 00:00:00 NR -15.7401 73.9707 main 1787 1774 _____P____P___ -1 -15.4178 74.1968 99 -16.0624 73.7446 7 3 226
1875011S14076 1875 2 SI MM NOT_NAMED 1875-01-14 03:00:00 NR -15.8359 73.8685 main 1774 1760 _____P____P___ -1 -15.5079 74.0972 99 -16.1639 73.6397 7 3 225
1875011S14076 1875 2 SI MM NOT_NAMED 1875-01-14 06:00:00 NR -15.9500 73.7500 reunion main 1760 1733 _____O____O___ -1 -15.6000 74.0000 99 9.90000 -16.3000 73.5000 7 3 224
1875011S14076 1875 2 SI MM NOT_NAMED 1875-01-14 09:00:00 NR -16.0806 73.6168 main 1733 1719 _____P____P___ -1 -15.6760 73.9265 99 -16.4851 73.3070 7 4 224
1875011S14076 1875 2 SI MM NOT_NAMED 1875-01-14 12:00:00 NR -16.2285 73.4689 main 1719 1692 _____P____P___ -1 -15.7518 73.8575 99 -16.7052 73.0802 7 4 223
1875011S14076 1875 2 SI MM NOT_NAMED 1875-01-14 15:00:00 NR -16.3893 73.3135 main 1692 1678 _____P____P___ -1 -15.8309 73.7887 99 -16.9476 72.8382 7 4 222
1875011S14076 1875 2 SI MM NOT_NAMED 1875-01-14 18:00:00 NR -16.5585 73.1580 main 1675 1651 _____P____O___ -1 -15.9169 73.7160 99 -17.2000 72.6000 7 4 220
1875011S14076 1875 2 SI MM NOT_NAMED 1875-01-14 21:00:00 NR -16.7300 73.0138 main 1651 1635 _____P____P___ -1 -16.0133 73.6350 99 -17.4468 72.3927 7 5 218
1875011S14076 1875 2 SI MM NOT_NAMED 1875-01-15 00:00:00 NR -16.9117 72.8669 main 1635 1609 _____P____P___ -1 -16.1236 73.5415 99 -17.6999 72.1923 7 5 218
1875011S14076 1875 2 SI MM NOT_NAMED 1875-01-15 03:00:00 NR -17.1022 72.7136 main 1609 1593 _____P____P___ -1 -16.2513 73.4313 99 -17.9530 71.9958 7 5 218
1875011S14076 1875 2 SI MM NOT_NAMED 1875-01-15 06:00:00 NR -17.3000 72.5500 reunion main 1593 1566 _____O____O___ -1 -16.4000 73.3000 99 9.90000 -18.2000 71.8000 7 5 219
1875011S14076 1875 2 SI MM NOT_NAMED 1875-01-15 09:00:00 NR -17.5024 72.3690 main 1566 1541 _____P____P___ -1 -16.5768 73.1343 99 -18.4280 71.6038 7 5 221
1875011S14076 1875 2 SI MM NOT_NAMED 1875-01-15 12:00:00 NR -17.7121 72.1772 main 1541 1515 _____P____P___ -1 -16.7744 72.9473 99 -18.6499 71.4071 7 6 221
1875011S14076 1875 2 SI MM NOT_NAMED 1875-01-15 15:00:00 NR -17.9305 71.9750 main 1515 1490 _____P____P___ -1 -16.9893 72.7431 99 -18.8718 71.2069 7 6 221
1875011S14076 1875 2 SI MM NOT_NAMED 1875-01-15 18:00:00 NR -18.1590 71.7628 main 1487 1452 _____P____O___ -1 -17.2180 72.5255 99 -19.1000 71.0000 7 6 222
1875011S14076 1875 2 SI MM NOT_NAMED 1875-01-15 21:00:00 NR -18.4039 71.5323 main 1452 1427 _____P____P___ -1 -17.4569 72.2985 99 -19.3510 70.7661 7 7 222
1875011S14076 1875 2 SI MM NOT_NAMED 1875-01-16 00:00:00 NR -18.6551 71.2968 main 1425 1401 _____P____P___ -1 -17.7025 72.0659 99 -19.6076 70.5277 7 7 221
1875011S14076 1875 2 SI MM NOT_NAMED 1875-01-16 03:00:00 NR -18.9059 71.0661 main 1401 1377 _____P____P___ -1 -17.9514 71.8317 99 -19.8604 70.3005 7 7 220
1875011S14076 1875 2 SI MM NOT_NAMED 1875-01-16 06:00:00 NR -19.1500 70.8500 reunion main 1377 1352 _____O____O___ -1 -18.2000 71.6000 99 9.90000 -20.1000 70.1000 7 6 219
1875011S14076 1875 2 SI MM NOT_NAMED 1875-01-16 09:00:00 NR -19.3814 70.6601 main 1352 1329 _____P____P___ -1 -18.4405 71.3742 99 -20.3223 69.9459 7 6 217
1875011S14076 1875 2 SI MM NOT_NAMED 1875-01-16 12:00:00 NR -19.6070 70.4832 main 1329 1306 _____P____P___ -1 -18.6841 71.1468 99 -20.5298 69.8196 7 6 216
1875011S14076 1875 2 SI MM NOT_NAMED 1875-01-16 15:00:00 NR -19.8256 70.3145 main 1306 1294 _____P____P___ -1 -18.9289 70.9205 99 -20.7224 69.7085 7 5 216
1875011S14076 1875 2 SI MM NOT_NAMED 1875-01-16 18:00:00 NR -20.0363 70.1490 main 1284 1272 _____P____O___ -1 -19.1727 70.6980 99 -20.9000 69.6000 7 5 218
1875011S14076 1875 2 SI MM NOT_NAMED 1875-01-16 21:00:00 NR -20.2370 69.9784 main 1272 1250 _____P____P___ -1 -19.4137 70.4819 99 -21.0603 69.4748 7 5 219
1875011S14076 1875 2 SI MM NOT_NAMED 1875-01-17 00:00:00 NR -20.4287 69.8124 main 1250 1239 _____P____P___ -1 -19.6499 70.2751 99 -21.2075 69.3498 7 5 219
1875011S14076 1875 2 SI MM NOT_NAMED 1875-01-17 03:00:00 NR -20.6151 69.6525 main 1239 1218 _____P____P___ -1 -19.8793 70.0802 99 -21.3509 69.2248 7 5 218
1875011S14076 1875 2 SI MM NOT_NAMED 1875-01-17 06:00:00 NR -20.8000 69.5000 reunion main 1219 1208 _____O____O___ -1 -20.1000 69.9000 99 9.90000 -21.5000 69.1000 7 5 217
1875011S14076 1875 2 SI MM NOT_NAMED 1875-01-17 09:00:00 NR -20.9857 69.3593 main 1209 1188 _____P____P___ -1 -20.3076 69.7436 99 -21.6637 68.9749 7 5 215
1875011S14076 1875 2 SI MM NOT_NAMED 1875-01-17 12:00:00 NR -21.1711 69.2262 main 1189 1179 _____P____P___ -1 -20.5072 69.6025 99 -21.8350 68.8499 7 4 213
1875011S14076 1875 2 SI MM NOT_NAMED 1875-01-17 15:00:00 NR -21.3568 69.0992 main 1180 1169 _____P____P___ -1 -20.6998 69.4734 99 -22.0137 68.7249 7 4 212
1875011S14076 1875 2 SI MM NOT_NAMED 1875-01-17 18:00:00 NR -21.5433 68.9767 main 1170 1161 _____P____O___ -1 -20.8867 69.3534 99 -22.2000 68.6000 7 4 211
1875011S14076 1875 2 SI MM NOT_NAMED 1875-01-17 21:00:00 NR -21.7312 68.8572 main 1162 1152 _____P____P___ -1 -21.0690 69.2392 99 -22.3935 68.4752 7 3 211
1875011S14076 1875 2 SI MM NOT_NAMED 1875-01-18 00:00:00 NR -21.8242 68.7945 main 1153 1153 _____P____P___ -1 -21.2479 69.1276 99 -22.5926 68.3503 7 2 212
1875011S14076 1875 2 SI MM NOT_NAMED 1875-01-18 03:00:00 NR -21.8815 68.7522 main 1154 1144 _____P____P___ -1 -21.4245 69.0157 99 -22.7954 68.2253 7 1 225
1875011S14076 1875 2 SI MM NOT_NAMED 1875-01-18 06:00:00 NR -21.8800 68.7400 reunion main 1144 1143 _____O____O___ -1 -21.6000 68.9000 99 9.90000 -23.0000 68.1000 7 1 0
1875011S14076 1875 2 SI MM NOT_NAMED 1875-01-18 09:00:00 NR -21.7912 68.7558 main 1153 1134 _____P________ -1 -21.7912 68.7558 99 7 2 231
1875011S14076 1875 2 SI MM NOT_NAMED 1875-01-18 12:00:00 NR -21.9817 68.6081 main 1135 1126 _____P________ -1 -21.9817 68.6081 99 7 5 216
1875011S14076 1875 2 SI MM NOT_NAMED 1875-01-18 15:00:00 NR -22.1695 68.4596 main 1128 1110 _____P________ -1 -22.1695 68.4596 99 7 5 216
1875011S14076 1875 2 SI MM NOT_NAMED 1875-01-18 18:00:00 NR -22.3527 68.3130 main 1111 1101 _____P________ -1 -22.3527 68.3130 99 4 217
1875011S14076 1875 2 SI MM NOT_NAMED 1875-01-18 21:00:00 NR -22.5293 68.1710 main 1103 1088 _____P________ -1 -22.5293 68.1710 99 4 217
1875011S14076 1875 2 SI MM NOT_NAMED 1875-01-19 00:00:00 NR -22.6974 68.0364 main 1088 1080 _____P________ -1 -22.6974 68.0364 99 4 217
1875011S14076 1875 2 SI MM NOT_NAMED 1875-01-19 03:00:00 NR -22.8549 67.9118 main 1083 1073 _____P________ -1 -22.8549 67.9118 99 4 216
1875011S14076 1875 2 SI MM NOT_NAMED 1875-01-19 06:00:00 NR -23.0000 67.8000 reunion main 1076 1069 _____O________ -1 -23.0000 67.8000 99 9.90000 3 215
1875011S14076 1875 2 SI MM NOT_NAMED 1875-01-19 09:00:00 NR -23.1314 67.7031 main 1069 1062 _____P________ -1 -23.1314 67.7031 99 3 214
1875011S14076 1875 2 SI MM NOT_NAMED 1875-01-19 12:00:00 NR -23.2501 67.6199 main 1065 1065 _____P________ -1 -23.2501 67.6199 99 3 212
1875011S14076 1875 2 SI MM NOT_NAMED 1875-01-19 15:00:00 NR -23.3582 67.5486 main 1058 1058 _____P________ -1 -23.3582 67.5486 99 2 211
1875011S14076 1875 2 SI MM NOT_NAMED 1875-01-19 18:00:00 NR -23.4573 67.4870 main 1062 1052 _____P________ -1 -23.4573 67.4870 99 2 208
1875011S14076 1875 2 SI MM NOT_NAMED 1875-01-19 21:00:00 NR -23.5492 67.4334 main 1052 1052 _____P________ -1 -23.5492 67.4334 99 2 208
1875011S14076 1875 2 SI MM NOT_NAMED 1875-01-20 00:00:00 NR -23.6358 67.3857 main 1055 1049 _____P________ -1 -23.6358 67.3857 99 2 204
1875011S14076 1875 2 SI MM NOT_NAMED 1875-01-20 03:00:00 NR -23.7188 67.3419 main 1049 1049 _____P________ -1 -23.7188 67.3419 99 2 205
1875011S14076 1875 2 SI MM NOT_NAMED 1875-01-20 06:00:00 NR -23.8000 67.3000 reunion main 1053 _____O________ -1 -23.8000 67.3000 99 9.90000 2 203

About IBTrACS Database

This database is a web-friendly format of International Best Track Archive for Climate Stewardship (IBTrACS), a global best track data archive curated by NOAA dating back to 1842.

Updated: 2021-12-03